Time;durP1;ratioP1;P1;durP2;ratioP2;P2;SDS_P1;SDS_P2;PMS_P1;PMS_P2;Temp;Humidity;BMP_temperature;BMP_pressure;BME280_temperature;BME280_humidity;BME280_pressure;Samples;Min_cycle;Max_cycle;Signal;HPM_P1;HPM_P2
2024/03/08 00:00:19;;;;;;;11.25;6.20;;;8.40;99.90;;;;;;4968841;28;20061;-78
2024/03/08 00:02:50;;;;;;;12.35;5.97;;;8.50;99.90;;;;;;4968551;28;20065;-78
2024/03/08 00:05:18;;;;;;;11.02;5.82;;;8.50;99.90;;;;;;4970662;28;20125;-78
2024/03/08 00:07:43;;;;;;;10.65;6.20;;;8.40;99.90;;;;;;4967303;28;20092;-78
2024/03/08 00:10:11;;;;;;;13.13;5.88;;;8.40;99.90;;;;;;4966861;28;20923;-77
2024/03/08 00:12:38;;;;;;;8.98;5.38;;;8.40;99.90;;;;;;4970541;28;20468;-78
2024/03/08 00:15:04;;;;;;;8.70;5.57;;;8.20;99.90;;;;;;4969986;28;20041;-77
2024/03/08 00:17:29;;;;;;;7.80;4.65;;;8.10;99.90;;;;;;4971884;28;20038;-77
2024/03/08 00:19:55;;;;;;;8.52;4.95;;;8.00;99.90;;;;;;4971974;28;20065;-77
2024/03/08 00:22:22;;;;;;;7.82;4.35;;;7.90;99.90;;;;;;4973461;28;20780;-78
2024/03/08 00:24:50;;;;;;;6.95;3.65;;;7.80;99.90;;;;;;4973353;28;20050;-78
2024/03/08 00:27:16;;;;;;;5.85;3.17;;;7.90;99.90;;;;;;4974523;28;20045;-78
2024/03/08 00:29:41;;;;;;;7.70;3.42;;;8.00;99.90;;;;;;4971924;28;20042;-78
2024/03/08 00:32:11;;;;;;;6.25;3.38;;;8.00;99.90;;;;;;4973148;28;20408;-77
2024/03/08 00:34:36;;;;;;;5.80;2.70;;;8.10;99.90;;;;;;4974910;28;20047;-78
2024/03/08 00:37:03;;;;;;;5.53;3.50;;;8.00;99.90;;;;;;4973718;28;20502;-77
2024/03/08 00:39:29;;;;;;;4.47;2.80;;;7.90;99.90;;;;;;4970805;28;20057;-78
2024/03/08 00:41:55;;;;;;;5.32;2.63;;;8.00;99.90;;;;;;4974609;28;20030;-78
2024/03/08 00:44:20;;;;;;;5.05;2.50;;;7.90;99.90;;;;;;4974162;28;20550;-78
2024/03/08 00:46:46;;;;;;;4.68;2.60;;;8.00;99.90;;;;;;4971886;28;20019;-77
2024/03/08 00:49:12;;;;;;;4.07;2.28;;;8.00;99.90;;;;;;4973211;28;20049;-78
2024/03/08 00:51:38;;;;;;;4.35;2.00;;;7.90;99.90;;;;;;4975781;28;20030;-78
2024/03/08 00:54:04;;;;;;;4.35;2.45;;;7.90;99.90;;;;;;4976332;28;20098;-78
2024/03/08 00:56:29;;;;;;;5.22;2.38;;;7.90;99.90;;;;;;4976051;28;20048;-78
2024/03/08 00:58:55;;;;;;;4.22;2.10;;;7.90;99.90;;;;;;4975996;28;20134;-77
2024/03/08 01:01:20;;;;;;;5.45;2.40;;;7.90;99.90;;;;;;4977571;28;20034;-78
2024/03/08 01:03:46;;;;;;;6.78;2.05;;;7.90;99.90;;;;;;4977129;28;20099;-77
2024/03/08 01:06:12;;;;;;;4.50;2.25;;;8.00;99.90;;;;;;4975211;28;20058;-78
2024/03/08 01:08:42;;;;;;;4.20;1.90;;;8.00;99.90;;;;;;4977628;28;20438;-78
2024/03/08 01:11:08;;;;;;;3.95;1.63;;;8.00;99.90;;;;;;4977267;28;20531;-77
2024/03/08 01:13:35;;;;;;;5.15;2.33;;;8.00;99.90;;;;;;4976152;28;20528;-78
2024/03/08 01:16:00;;;;;;;5.78;2.67;;;8.00;99.90;;;;;;4976509;28;20042;-78
2024/03/08 01:18:28;;;;;;;4.10;2.08;;;8.10;99.90;;;;;;4975990;28;20536;-77
2024/03/08 01:20:53;;;;;;;4.05;2.20;;;8.10;99.90;;;;;;4975624;28;20425;-77
2024/03/08 01:23:19;;;;;;;4.20;1.90;;;8.10;99.90;;;;;;4977454;28;20046;-78
2024/03/08 01:25:45;;;;;;;4.43;1.83;;;8.00;99.90;;;;;;4974004;28;20038;-77
2024/03/08 01:28:10;;;;;;;4.80;2.50;;;8.00;99.90;;;;;;4975408;28;20045;-77
2024/03/08 01:30:37;;;;;;;5.10;2.47;;;8.10;99.90;;;;;;4977432;28;20049;-78
2024/03/08 01:33:03;;;;;;;3.70;2.40;;;8.10;99.90;;;;;;4975569;28;20032;-77
2024/03/08 01:35:29;;;;;;;5.57;2.95;;;8.00;99.90;;;;;;4973153;28;20038;-78
2024/03/08 01:37:54;;;;;;;5.18;2.50;;;7.90;99.90;;;;;;4977667;28;20496;-78
2024/03/08 01:40:20;;;;;;;6.13;2.80;;;7.90;99.90;;;;;;4975043;28;20050;-78
2024/03/08 01:42:47;;;;;;;5.22;2.58;;;7.90;99.90;;;;;;4975085;28;20678;-78
2024/03/08 01:45:13;;;;;;;5.18;2.90;;;7.90;99.90;;;;;;4977007;28;20026;-78
2024/03/08 01:47:39;;;;;;;5.45;3.08;;;8.00;99.90;;;;;;4972618;28;20069;-78
2024/03/08 01:50:06;;;;;;;7.45;3.03;;;8.20;99.90;;;;;;4973046;28;20444;-77
2024/03/08 01:52:32;;;;;;;4.32;2.45;;;8.10;99.90;;;;;;4977472;28;20786;-78
2024/03/08 01:55:03;;;;;;;4.22;2.22;;;8.10;99.90;;;;;;4975078;28;20464;-78
2024/03/08 01:57:31;;;;;;;4.82;2.20;;;8.10;99.90;;;;;;4976122;28;20057;-77
2024/03/08 01:59:57;;;;;;;7.85;3.40;;;8.10;99.90;;;;;;4976054;28;20038;-78
2024/03/08 02:02:23;;;;;;;5.65;3.08;;;8.10;99.90;;;;;;4975245;28;20045;-78
2024/03/08 02:04:52;;;;;;;7.65;3.10;;;8.10;99.90;;;;;;4975983;28;20026;-78
2024/03/08 02:07:18;;;;;;;6.47;3.10;;;8.10;99.90;;;;;;4975915;28;20034;-78
2024/03/08 02:09:43;;;;;;;4.95;2.58;;;8.10;99.90;;;;;;4974720;28;20034;-78
2024/03/08 02:12:10;;;;;;;6.63;2.90;;;8.10;99.90;;;;;;4974796;28;20061;-77
2024/03/08 02:14:36;;;;;;;6.30;2.60;;;8.00;99.90;;;;;;4976344;28;20034;-78
2024/03/08 02:17:02;;;;;;;6.10;3.15;;;8.00;99.90;;;;;;4975504;28;21448;-78
2024/03/08 02:19:28;;;;;;;5.30;2.85;;;7.90;99.90;;;;;;4972807;28;20741;-78
2024/03/08 02:21:54;;;;;;;6.07;3.22;;;8.00;99.90;;;;;;4975758;28;20022;-78
2024/03/08 02:24:19;;;;;;;6.07;3.10;;;7.90;99.90;;;;;;4975091;28;20496;-78
2024/03/08 02:26:45;;;;;;;6.03;3.38;;;8.00;99.90;;;;;;4976473;28;20125;-78
2024/03/08 02:29:12;;;;;;;4.47;2.58;;;7.90;99.90;;;;;;4974113;28;20117;-78
2024/03/08 02:31:39;;;;;;;5.10;2.45;;;8.00;99.90;;;;;;4974244;28;20031;-78
2024/03/08 02:34:05;;;;;;;4.97;2.38;;;7.90;99.90;;;;;;4976885;28;20125;-77
2024/03/08 02:36:34;;;;;;;5.35;2.58;;;8.00;99.90;;;;;;4974778;28;20473;-78
2024/03/08 02:39:02;;;;;;;7.30;3.00;;;7.90;99.90;;;;;;4974257;28;20027;-78
2024/03/08 02:41:27;;;;;;;5.93;2.80;;;7.90;99.90;;;;;;4974475;28;20073;-77
2024/03/08 02:43:53;;;;;;;5.40;2.63;;;7.90;99.90;;;;;;4975901;28;20121;-78
2024/03/08 02:46:19;;;;;;;4.57;2.45;;;7.90;99.90;;;;;;4974399;28;20031;-78
2024/03/08 02:48:44;;;;;;;5.05;2.63;;;8.00;99.90;;;;;;4972977;28;20555;-78
2024/03/08 02:51:10;;;;;;;5.00;2.80;;;7.90;99.90;;;;;;4975770;28;20396;-78
2024/03/08 02:53:37;;;;;;;6.18;2.63;;;8.00;99.90;;;;;;4973585;28;20096;-78
2024/03/08 02:56:04;;;;;;;5.65;3.00;;;7.90;99.90;;;;;;4973891;28;20610;-78
2024/03/08 02:58:30;;;;;;;5.25;2.67;;;7.80;99.90;;;;;;4974197;28;20030;-78
2024/03/08 03:00:57;;;;;;;5.72;2.78;;;7.90;99.90;;;;;;4974537;28;20046;-77
2024/03/08 03:03:22;;;;;;;4.80;2.78;;;7.90;99.90;;;;;;4974224;28;20052;-78
2024/03/08 03:05:49;;;;;;;5.25;2.72;;;8.00;99.90;;;;;;4973965;28;20038;-78
2024/03/08 03:08:16;;;;;;;6.20;2.70;;;7.90;99.90;;;;;;4973677;28;20030;-77
2024/03/08 03:10:42;;;;;;;4.75;2.05;;;8.00;99.90;;;;;;4972437;28;20045;-78
2024/03/08 03:13:08;;;;;;;6.00;2.67;;;7.90;99.90;;;;;;4975170;28;20085;-77
2024/03/08 03:15:33;;;;;;;4.18;2.10;;;8.00;99.90;;;;;;4975201;28;20113;-78
2024/03/08 03:18:00;;;;;;;4.80;2.15;;;8.00;99.90;;;;;;4974010;28;20046;-77
2024/03/08 03:20:31;;;;;;;4.70;1.95;;;8.00;99.90;;;;;;4974584;28;20034;-78
2024/03/08 03:22:57;;;;;;;5.90;2.80;;;7.90;99.90;;;;;;4973975;28;20575;-78
2024/03/08 03:25:28;;;;;;;9.43;2.60;;;7.90;99.90;;;;;;4974932;28;20095;-78
2024/03/08 03:27:57;;;;;;;7.53;2.15;;;7.90;99.90;;;;;;4974739;28;20125;-77
2024/03/08 03:30:26;;;;;;;7.28;3.28;;;8.00;99.90;;;;;;4974565;28;20092;-78
2024/03/08 03:32:52;;;;;;;7.78;4.20;;;8.00;99.90;;;;;;4974632;28;20433;-78
2024/03/08 03:35:20;;;;;;;8.27;4.68;;;7.90;99.90;;;;;;4973732;28;20053;-78
2024/03/08 03:37:51;;;;;;;9.38;4.45;;;7.90;99.90;;;;;;4973944;28;20362;-77
2024/03/08 03:40:19;;;;;;;11.13;5.50;;;7.80;99.90;;;;;;4975081;28;20497;-78
2024/03/08 03:42:45;;;;;;;9.75;4.65;;;7.80;99.90;;;;;;4973271;28;20448;-78
2024/03/08 03:45:11;;;;;;;6.75;3.55;;;7.80;99.90;;;;;;4973795;28;20591;-77
2024/03/08 03:47:38;;;;;;;7.07;4.32;;;7.80;99.90;;;;;;4974694;28;20031;-78
2024/03/08 03:50:05;;;;;;;7.07;2.88;;;7.60;99.90;;;;;;4973198;28;20130;-78
2024/03/08 03:52:31;;;;;;;4.93;2.92;;;7.60;99.90;;;;;;4971395;28;20038;-78
2024/03/08 03:54:57;;;;;;;4.82;2.08;;;7.60;99.90;;;;;;4974542;28;20045;-78
2024/03/08 03:57:23;;;;;;;4.85;2.53;;;7.70;99.90;;;;;;4973090;28;20050;-78
2024/03/08 03:59:50;;;;;;;4.40;1.73;;;7.60;99.90;;;;;;4972869;28;20046;-78
2024/03/08 04:02:17;;;;;;;3.95;1.95;;;7.60;99.90;;;;;;4971821;28;20073;-78
2024/03/08 04:04:44;;;;;;;4.88;1.77;;;7.70;99.90;;;;;;4968215;28;20038;-77
2024/03/08 04:07:09;;;;;;;4.57;2.08;;;7.50;99.90;;;;;;4968693;28;20042;-77
2024/03/08 04:09:35;;;;;;;3.83;2.30;;;7.50;99.90;;;;;;4969089;28;20511;-77
2024/03/08 04:12:01;;;;;;;3.33;1.75;;;7.30;99.90;;;;;;4970336;28;20195;-77
2024/03/08 04:14:26;;;;;;;6.57;2.50;;;7.10;99.90;;;;;;4968127;28;20040;-77
2024/03/08 04:16:52;;;;;;;3.60;1.80;;;7.10;99.90;;;;;;4970431;28;20042;-77
2024/03/08 04:19:19;;;;;;;4.20;2.15;;;7.10;99.90;;;;;;4965420;28;20030;-77
2024/03/08 04:21:44;;;;;;;4.30;2.08;;;7.20;99.90;;;;;;4967928;28;20122;-78
2024/03/08 04:24:10;;;;;;;5.30;1.73;;;7.20;99.90;;;;;;4966407;28;20166;-77
2024/03/08 04:26:36;;;;;;;4.68;1.48;;;7.40;99.90;;;;;;4971603;28;20034;-77
2024/03/08 04:29:01;;;;;;;3.20;1.50;;;7.50;99.90;;;;;;4973380;28;20041;-77
2024/03/08 04:31:27;;;;;;;4.07;1.90;;;7.50;99.90;;;;;;4969150;28;20448;-78
2024/03/08 04:33:53;;;;;;;4.43;2.17;;;7.40;99.90;;;;;;4971296;28;20443;-77
2024/03/08 04:36:19;;;;;;;4.35;2.00;;;7.10;99.90;;;;;;4973875;28;20042;-76
2024/03/08 04:38:45;;;;;;;5.53;2.00;;;7.10;99.90;;;;;;4973617;28;21471;-78
2024/03/08 04:41:11;;;;;;;4.25;2.30;;;7.00;99.90;;;;;;4974189;28;20045;-77
2024/03/08 04:43:37;;;;;;;3.97;2.00;;;6.90;99.90;;;;;;4970370;28;20560;-78
2024/03/08 04:46:03;;;;;;;4.32;2.05;;;7.00;99.90;;;;;;4969110;28;20589;-78
2024/03/08 04:48:29;;;;;;;3.92;1.80;;;7.00;99.90;;;;;;4972086;28;20469;-77
2024/03/08 04:50:55;;;;;;;6.15;3.25;;;7.10;99.90;;;;;;4970874;28;20045;-77
2024/03/08 04:53:21;;;;;;;6.43;2.35;;;7.00;99.90;;;;;;4971801;28;20034;-78
2024/03/08 04:55:46;;;;;;;5.05;2.28;;;7.00;99.90;;;;;;4974436;28;20022;-78
2024/03/08 04:58:12;;;;;;;5.85;2.13;;;7.10;99.90;;;;;;4972726;28;20045;-77
2024/03/08 05:00:38;;;;;;;4.50;2.03;;;7.00;99.90;;;;;;4973602;28;20077;-77
2024/03/08 05:03:04;;;;;;;4.13;2.03;;;7.10;99.90;;;;;;4971318;28;20038;-77
2024/03/08 05:05:30;;;;;;;6.50;2.60;;;7.00;99.90;;;;;;4971722;28;20092;-77
2024/03/08 05:07:56;;;;;;;4.95;2.85;;;7.10;99.90;;;;;;4971623;28;20046;-77
2024/03/08 05:10:22;;;;;;;5.88;2.67;;;7.10;99.90;;;;;;4969380;28;20066;-78
2024/03/08 05:12:47;;;;;;;3.92;2.38;;;7.20;99.90;;;;;;4973810;28;20041;-77
2024/03/08 05:15:13;;;;;;;11.05;4.68;;;7.20;99.90;;;;;;4971586;28;20043;-77
2024/03/08 05:17:40;;;;;;;6.43;3.67;;;7.20;99.90;;;;;;4973360;28;20034;-77
2024/03/08 05:20:08;;;;;;;5.00;2.75;;;7.30;99.90;;;;;;4973654;28;20037;-77
2024/03/08 05:22:33;;;;;;;5.55;2.83;;;7.20;99.90;;;;;;4970727;28;20619;-78
2024/03/08 05:24:59;;;;;;;4.50;2.42;;;7.20;99.90;;;;;;4973642;28;20041;-77
2024/03/08 05:27:25;;;;;;;5.30;2.08;;;7.20;99.90;;;;;;4972168;28;20090;-77
2024/03/08 05:29:50;;;;;;;5.45;2.53;;;7.10;99.90;;;;;;4972832;28;20457;-77
2024/03/08 05:32:16;;;;;;;4.82;2.42;;;7.10;99.90;;;;;;4971065;28;20038;-77
2024/03/08 05:34:42;;;;;;;6.22;2.97;;;7.00;99.90;;;;;;4969740;28;20609;-77
2024/03/08 05:37:08;;;;;;;4.95;2.35;;;6.90;99.90;;;;;;4970157;28;20038;-78
2024/03/08 05:39:33;;;;;;;5.05;2.65;;;7.00;99.90;;;;;;4972699;28;20105;-77
2024/03/08 05:41:59;;;;;;;5.40;2.20;;;6.90;99.90;;;;;;4973482;28;20030;-78
2024/03/08 05:44:28;;;;;;;3.25;1.70;;;7.00;99.90;;;;;;4973872;28;20072;-78
2024/03/08 05:46:54;;;;;;;4.28;2.30;;;7.10;99.90;;;;;;4970446;28;20037;-77
2024/03/08 05:49:21;;;;;;;4.45;2.05;;;7.10;99.90;;;;;;4971403;28;20436;-77
2024/03/08 05:51:47;;;;;;;4.53;2.53;;;7.00;99.90;;;;;;4973943;28;20139;-77
2024/03/08 05:54:13;;;;;;;6.72;2.53;;;6.90;99.90;;;;;;4972149;28;20487;-77
2024/03/08 05:56:43;;;;;;;4.85;2.33;;;6.90;99.90;;;;;;4972389;28;20042;-77
2024/03/08 05:59:10;;;;;;;4.70;2.63;;;6.90;99.90;;;;;;4970019;28;20057;-77
2024/03/08 06:01:40;;;;;;;5.93;2.78;;;6.90;99.90;;;;;;4967587;28;20669;-77
2024/03/08 06:04:07;;;;;;;5.80;2.72;;;6.90;99.90;;;;;;4968283;28;20045;-77
2024/03/08 06:06:33;;;;;;;5.32;2.13;;;7.00;99.90;;;;;;4969749;28;20138;-78
2024/03/08 06:08:59;;;;;;;4.88;2.20;;;7.10;99.90;;;;;;4972852;28;20647;-78
2024/03/08 06:11:30;;;;;;;4.03;2.03;;;7.10;99.90;;;;;;4970278;28;20046;-78
2024/03/08 06:13:59;;;;;;;4.07;2.10;;;7.10;99.90;;;;;;4969443;28;20100;-77
2024/03/08 06:16:28;;;;;;;3.70;1.83;;;7.20;99.90;;;;;;4975582;28;20038;-79
2024/03/08 06:18:57;;;;;;;3.55;1.90;;;7.20;99.90;;;;;;4981378;28;20042;-79
2024/03/08 06:21:25;;;;;;;4.38;1.52;;;7.20;99.90;;;;;;4976490;28;20042;-79
2024/03/08 06:23:54;;;;;;;3.25;1.70;;;7.30;99.90;;;;;;4973190;28;20595;-80
2024/03/08 06:26:21;;;;;;;5.10;2.55;;;7.30;99.90;;;;;;4974171;28;20039;-78
2024/03/08 06:28:48;;;;;;;7.13;2.58;;;7.30;99.90;;;;;;4969200;28;20061;-79
2024/03/08 06:31:14;;;;;;;5.88;2.75;;;7.30;99.90;;;;;;4972511;28;20078;-80
2024/03/08 06:33:40;;;;;;;4.57;2.38;;;7.20;99.90;;;;;;4970221;28;20076;-79
2024/03/08 06:36:06;;;;;;;5.68;2.78;;;7.20;99.90;;;;;;4967677;28;20634;-79
2024/03/08 06:38:31;;;;;;;5.18;2.33;;;7.30;99.90;;;;;;4968868;28;20289;-77
2024/03/08 06:40:57;;;;;;;5.53;2.90;;;7.20;99.90;;;;;;4978203;28;20034;-79
2024/03/08 06:43:24;;;;;;;4.78;2.30;;;7.10;99.90;;;;;;4977545;28;20092;-79
2024/03/08 06:45:50;;;;;;;6.20;2.78;;;7.20;99.90;;;;;;4973445;28;20027;-79
2024/03/08 06:48:17;;;;;;;4.20;2.30;;;7.30;99.90;;;;;;4969088;28;20395;-77
2024/03/08 06:50:44;;;;;;;4.93;2.53;;;7.30;99.90;;;;;;4969571;28;20038;-79
2024/03/08 06:53:10;;;;;;;3.70;1.75;;;7.40;99.90;;;;;;4970156;28;20035;-78
2024/03/08 06:55:36;;;;;;;4.85;2.08;;;7.40;99.90;;;;;;4971535;28;20029;-78
2024/03/08 06:58:02;;;;;;;4.03;2.00;;;7.40;99.90;;;;;;4970558;28;20038;-77
2024/03/08 07:00:30;;;;;;;3.20;1.65;;;7.30;99.90;;;;;;4969300;28;20046;-78
2024/03/08 07:02:57;;;;;;;4.63;2.20;;;7.30;99.90;;;;;;4970316;28;20042;-78
2024/03/08 07:05:24;;;;;;;4.45;2.35;;;7.40;99.90;;;;;;4973496;28;20427;-78
2024/03/08 07:07:50;;;;;;;4.72;2.53;;;7.40;99.90;;;;;;4971565;28;20076;-78
2024/03/08 07:10:16;;;;;;;5.03;2.72;;;7.30;99.90;;;;;;4970401;28;20058;-78
2024/03/08 07:12:42;;;;;;;3.47;1.75;;;7.40;99.90;;;;;;4973425;28;20034;-78
2024/03/08 07:15:13;;;;;;;5.47;2.15;;;7.40;99.90;;;;;;4972924;28;20038;-77
2024/03/08 07:17:39;;;;;;;5.35;2.40;;;7.40;99.90;;;;;;4969318;28;20026;-78
2024/03/08 07:20:10;;;;;;;4.25;1.98;;;7.50;99.90;;;;;;4972901;28;20755;-79
2024/03/08 07:22:36;;;;;;;4.28;2.38;;;7.50;99.90;;;;;;4973217;28;20540;-77
2024/03/08 07:27:36;;;;;;;4.75;1.90;;;7.50;99.90;;;;;;4973686;28;20060;-78
2024/03/08 07:30:04;;;;;;;3.78;1.77;;;7.60;99.90;;;;;;4975140;28;20692;-78
2024/03/08 07:32:31;;;;;;;5.72;1.88;;;7.60;99.90;;;;;;4974839;28;20038;-78
2024/03/08 07:34:57;;;;;;;2.72;1.27;;;7.70;99.90;;;;;;4975771;28;20057;-78
2024/03/08 07:37:23;;;;;;;2.55;1.17;;;7.70;99.90;;;;;;4963725;28;20053;-77
2024/03/08 07:39:49;;;;;;;3.72;1.25;;;7.70;99.90;;;;;;4964558;28;20506;-77
2024/03/08 07:42:16;;;;;;;2.33;1.10;;;7.80;99.90;;;;;;4963839;28;20094;-78
2024/03/08 07:44:42;;;;;;;2.60;1.30;;;7.70;99.90;;;;;;4965146;28;20050;-78
2024/03/08 07:47:09;;;;;;;1.73;0.80;;;7.70;99.90;;;;;;4964387;28;20034;-78
2024/03/08 07:49:37;;;;;;;3.92;1.38;;;7.80;99.90;;;;;;4963912;28;20030;-78
2024/03/08 07:52:04;;;;;;;2.42;1.10;;;7.80;99.90;;;;;;4965689;28;20061;-78
2024/03/08 07:54:30;;;;;;;2.30;1.08;;;7.80;99.90;;;;;;4967314;28;20039;-78
2024/03/08 07:56:56;;;;;;;1.67;1.00;;;7.80;99.90;;;;;;4964141;28;20034;-78
2024/03/08 07:59:21;;;;;;;3.10;1.35;;;7.90;99.90;;;;;;4965505;28;20073;-78
2024/03/08 08:01:47;;;;;;;3.85;1.60;;;8.00;99.90;;;;;;4968335;28;20680;-78
2024/03/08 08:04:14;;;;;;;2.60;1.05;;;8.10;99.90;;;;;;4968371;28;20050;-78
2024/03/08 08:06:43;;;;;;;2.72;1.10;;;8.10;99.90;;;;;;4968908;28;20479;-79
2024/03/08 08:09:15;;;;;;;1.77;0.80;;;8.20;99.90;;;;;;4969826;28;20401;-79
2024/03/08 08:11:43;;;;;;;3.90;1.55;;;8.30;99.90;;;;;;4977898;28;20050;-79
2024/03/08 08:14:09;;;;;;;2.35;1.00;;;8.40;99.90;;;;;;4973307;28;20047;-78
2024/03/08 08:16:36;;;;;;;2.95;1.42;;;8.40;99.90;;;;;;4973559;28;20464;-77
2024/03/08 08:19:07;;;;;;;2.95;1.30;;;8.50;99.90;;;;;;4969537;28;20030;-77
2024/03/08 08:21:34;;;;;;;2.92;1.10;;;8.50;99.90;;;;;;4971697;28;20359;-76
2024/03/08 08:24:00;;;;;;;2.22;1.00;;;8.60;99.90;;;;;;4969918;28;20121;-78
2024/03/08 08:26:26;;;;;;;1.40;0.77;;;8.70;99.90;;;;;;4969886;28;20045;-78
2024/03/08 08:28:53;;;;;;;2.17;0.70;;;8.70;99.90;;;;;;4969849;28;20044;-77
2024/03/08 08:31:19;;;;;;;1.83;0.90;;;8.60;99.90;;;;;;4968381;28;20044;-77
2024/03/08 08:33:45;;;;;;;2.00;1.00;;;8.60;99.90;;;;;;4969967;28;20030;-77
2024/03/08 08:36:10;;;;;;;3.35;1.02;;;8.50;99.90;;;;;;4970970;28;20042;-78
2024/03/08 08:38:36;;;;;;;3.25;1.92;;;8.50;99.90;;;;;;4968629;28;20035;-76
2024/03/08 08:41:02;;;;;;;2.05;0.90;;;8.50;99.90;;;;;;4969101;28;20034;-77
2024/03/08 08:43:28;;;;;;;2.08;0.93;;;8.50;99.90;;;;;;4970910;28;20139;-77
2024/03/08 08:45:55;;;;;;;1.95;0.80;;;8.60;99.90;;;;;;4969091;28;20052;-77
2024/03/08 08:48:20;;;;;;;3.15;1.25;;;8.70;99.90;;;;;;4967563;28;20038;-77
2024/03/08 08:50:46;;;;;;;1.55;0.75;;;8.70;99.90;;;;;;4973700;28;20046;-77
2024/03/08 08:53:14;;;;;;;2.92;1.08;;;8.80;99.90;;;;;;4971704;28;20034;-80
2024/03/08 08:55:40;;;;;;;2.33;1.00;;;8.80;99.90;;;;;;4969518;28;20034;-79
2024/03/08 08:58:07;;;;;;;2.35;1.08;;;8.90;99.90;;;;;;4969555;28;20667;-79
2024/03/08 09:00:34;;;;;;;2.28;0.93;;;8.90;99.90;;;;;;4969649;28;20090;-80
2024/03/08 09:03:02;;;;;;;3.38;1.38;;;9.00;99.90;;;;;;4969510;28;20377;-79
2024/03/08 09:05:27;;;;;;;8.18;4.55;;;9.20;99.90;;;;;;4969929;28;20981;-79
2024/03/08 09:07:53;;;;;;;6.47;3.30;;;9.20;99.90;;;;;;4967333;28;20034;-78
2024/03/08 09:10:19;;;;;;;4.07;1.77;;;9.40;99.90;;;;;;4968192;28;20112;-78
2024/03/08 09:12:44;;;;;;;3.13;1.23;;;9.40;99.90;;;;;;4970253;28;20026;-78
2024/03/08 09:15:13;;;;;;;4.20;1.50;;;9.50;99.90;;;;;;4970794;28;20058;-80
2024/03/08 09:17:39;;;;;;;4.47;1.95;;;9.60;99.90;;;;;;4969205;28;20038;-79
2024/03/08 09:20:07;;;;;;;3.45;1.75;;;9.60;99.90;;;;;;4970034;28;20630;-78
2024/03/08 09:22:32;;;;;;;3.05;1.48;;;9.60;99.90;;;;;;4969538;28;20034;-76
2024/03/08 09:24:58;;;;;;;4.05;1.85;;;9.70;99.90;;;;;;4971368;28;20089;-78
2024/03/08 09:27:24;;;;;;;3.10;1.55;;;9.40;99.90;;;;;;4967928;28;20501;-79
2024/03/08 09:29:49;;;;;;;4.72;1.70;;;9.60;99.90;;;;;;4969077;28;21387;-78
2024/03/08 09:32:15;;;;;;;3.47;1.38;;;9.60;99.90;;;;;;4970545;28;20534;-77
2024/03/08 09:34:41;;;;;;;3.38;1.48;;;9.90;99.90;;;;;;4968850;28;20030;-77
2024/03/08 09:37:06;;;;;;;3.38;1.70;;;9.90;99.90;;;;;;4966969;28;20047;-78
2024/03/08 09:39:33;;;;;;;4.50;1.83;;;9.80;99.90;;;;;;4969366;28;20038;-79
2024/03/08 09:41:59;;;;;;;3.25;1.48;;;9.80;99.90;;;;;;4968802;28;20065;-79
2024/03/08 09:44:24;;;;;;;3.47;1.60;;;9.90;99.90;;;;;;4968969;28;20964;-79
2024/03/08 09:46:52;;;;;;;3.20;1.48;;;9.70;99.90;;;;;;4971523;28;20113;-80
2024/03/08 09:49:19;;;;;;;2.65;1.38;;;9.50;99.90;;;;;;4971295;28;20140;-78
2024/03/08 09:51:45;;;;;;;3.35;1.70;;;9.50;99.90;;;;;;4971442;28;20053;-79
2024/03/08 09:54:12;;;;;;;4.32;1.48;;;9.80;99.90;;;;;;4971392;28;20279;-79
2024/03/08 09:56:41;;;;;;;5.75;2.08;;;10.00;99.90;;;;;;4971321;28;20043;-78
2024/03/08 10:01:56;;;;;;;3.30;1.67;;;10.10;99.90;;;;;;4970454;28;20602;-78
2024/03/08 10:04:24;;;;;;;3.83;1.85;;;9.70;99.90;;;;;;4971304;28;20043;-78
2024/03/08 10:06:49;;;;;;;3.83;1.67;;;9.90;99.90;;;;;;4970729;28;20060;-77
2024/03/08 10:09:16;;;;;;;4.63;1.73;;;10.10;99.90;;;;;;4969842;28;20882;-78
2024/03/08 10:11:42;;;;;;;4.32;2.17;;;10.20;99.90;;;;;;4971836;28;20100;-77
2024/03/08 10:14:09;;;;;;;3.78;2.38;;;10.00;99.90;;;;;;4971725;28;20042;-78
2024/03/08 10:16:35;;;;;;;4.10;1.95;;;9.50;99.90;;;;;;4971036;28;20030;-78
2024/03/08 10:19:01;;;;;;;3.78;1.55;;;9.90;99.90;;;;;;4969998;28;20519;-78
2024/03/08 10:21:27;;;;;;;3.80;1.50;;;10.20;99.90;;;;;;4971865;28;20495;-78
2024/03/08 10:23:53;;;;;;;4.00;1.60;;;10.50;99.90;;;;;;4970292;28;20127;-77
2024/03/08 10:26:21;;;;;;;3.92;1.77;;;10.50;99.90;;;;;;4971860;28;20750;-78
2024/03/08 10:28:55;;;;;;;3.45;1.70;;;10.40;99.90;;;;;;4968966;28;20034;-78
2024/03/08 10:31:21;;;;;;;3.25;1.60;;;10.50;99.90;;;;;;4969704;28;20038;-79
2024/03/08 10:33:46;;;;;;;5.35;1.88;;;10.60;99.90;;;;;;4971479;28;20611;-78
2024/03/08 10:36:14;;;;;;;4.03;1.73;;;10.70;99.90;;;;;;4969875;28;20089;-78
2024/03/08 10:38:41;;;;;;;3.92;1.90;;;10.50;99.90;;;;;;4968079;28;20477;-78
2024/03/08 10:41:12;;;;;;;4.13;2.17;;;10.40;99.90;;;;;;4971371;28;20034;-79
2024/03/08 10:44:07;;;;;;;4.45;2.42;;;10.20;99.90;;;;;;4971555;28;20050;-78
2024/03/08 10:46:36;;;;;;;4.15;1.73;;;10.10;99.90;;;;;;4971499;28;20034;-78
2024/03/08 10:49:06;;;;;;;3.15;1.70;;;10.20;99.90;;;;;;4969251;28;20505;-77
2024/03/08 10:51:32;;;;;;;3.67;1.98;;;10.40;99.90;;;;;;4970057;28;20039;-78
2024/03/08 10:53:59;;;;;;;3.88;2.13;;;10.40;99.90;;;;;;4970965;28;20034;-78
2024/03/08 10:56:27;;;;;;;4.53;1.98;;;10.40;99.90;;;;;;4971366;28;20109;-78
2024/03/08 10:58:55;;;;;;;4.18;2.13;;;10.30;99.90;;;;;;4969692;28;20026;-77
2024/03/08 11:01:21;;;;;;;5.07;2.83;;;10.20;99.90;;;;;;4970262;28;20432;-78
2024/03/08 11:03:53;;;;;;;6.28;2.33;;;10.20;99.90;;;;;;4971624;28;20042;-77
2024/03/08 11:06:42;;;;;;;5.65;2.10;;;10.40;99.90;;;;;;4970053;28;20030;-78
2024/03/08 11:09:30;;;;;;;6.47;2.50;;;10.40;99.90;;;;;;4970227;28;20169;-78
2024/03/08 11:12:17;;;;;;;4.55;2.20;;;10.40;99.90;;;;;;4969976;28;20054;-77
2024/03/08 11:14:46;;;;;;;5.40;2.13;;;10.40;99.90;;;;;;4970962;28;20109;-78
2024/03/08 11:17:13;;;;;;;4.35;2.33;;;10.40;99.90;;;;;;4969663;28;20065;-77
2024/03/08 11:19:46;;;;;;;6.45;2.75;;;10.20;99.90;;;;;;4968935;28;20041;-78
2024/03/08 11:22:24;;;;;;;4.13;2.42;;;10.20;99.90;;;;;;4970102;28;20065;-78
2024/03/08 11:24:50;;;;;;;4.03;1.92;;;10.30;99.90;;;;;;4969557;28;20050;-80
2024/03/08 11:27:16;;;;;;;7.68;2.70;;;10.40;99.90;;;;;;4969668;28;20454;-79
2024/03/08 11:29:41;;;;;;;4.60;2.08;;;10.30;99.90;;;;;;4968992;28;20037;-78
2024/03/08 11:32:12;;;;;;;5.03;2.55;;;10.40;99.90;;;;;;4971719;28;20030;-79
2024/03/08 11:34:40;;;;;;;5.00;2.30;;;10.30;99.90;;;;;;4969638;28;20696;-79
2024/03/08 11:37:15;;;;;;;3.08;1.55;;;10.10;99.90;;;;;;4971360;28;20053;-80
2024/03/08 11:39:58;;;;;;;4.28;2.00;;;10.10;99.90;;;;;;4969503;28;20042;-79
2024/03/08 11:42:26;;;;;;;6.50;2.80;;;10.00;99.90;;;;;;4970165;28;20027;-77
2024/03/08 11:44:53;;;;;;;5.20;2.45;;;10.00;99.90;;;;;;4967888;28;20053;-79
2024/03/08 11:47:19;;;;;;;5.38;2.50;;;9.90;99.90;;;;;;4967969;28;20109;-80
2024/03/08 11:49:47;;;;;;;4.43;2.17;;;10.10;99.90;;;;;;4967343;28;20652;-78
2024/03/08 11:52:18;;;;;;;3.75;2.10;;;10.30;99.90;;;;;;4968799;28;20058;-77
2024/03/08 11:54:57;;;;;;;5.95;2.25;;;10.40;99.90;;;;;;4970054;28;20533;-79
2024/03/08 11:57:23;;;;;;;4.05;2.08;;;10.20;99.90;;;;;;4969205;28;20526;-78
2024/03/08 11:59:54;;;;;;;4.63;2.30;;;10.20;99.90;;;;;;4969053;28;20115;-78
2024/03/08 12:02:19;;;;;;;4.55;2.47;;;10.20;99.90;;;;;;4968675;28;20034;-79
2024/03/08 12:04:49;;;;;;;4.00;2.20;;;10.00;99.90;;;;;;4968491;28;20053;-78
2024/03/08 12:07:18;;;;;;;5.85;2.55;;;10.10;99.90;;;;;;4973424;28;20486;-78
2024/03/08 12:10:05;;;;;;;9.35;3.15;;;10.10;99.90;;;;;;4967725;28;20121;-78
2024/03/08 12:12:32;;;;;;;4.90;2.28;;;10.00;99.90;;;;;;4966584;28;20034;-77
2024/03/08 12:14:57;;;;;;;5.10;2.97;;;10.00;99.90;;;;;;4964765;28;20065;-78
2024/03/08 12:17:24;;;;;;;4.65;2.55;;;10.00;99.90;;;;;;4965308;28;20113;-77
2024/03/08 12:19:49;;;;;;;4.82;2.35;;;9.90;99.90;;;;;;4964197;28;20030;-77
2024/03/08 12:22:15;;;;;;;5.88;2.83;;;9.90;99.90;;;;;;4966418;28;20047;-76
2024/03/08 12:24:42;;;;;;;6.03;2.95;;;10.00;99.90;;;;;;4965065;28;20042;-76
2024/03/08 12:27:20;;;;;;;5.22;2.28;;;10.00;99.90;;;;;;4964873;28;20710;-77
2024/03/08 12:29:46;;;;;;;4.78;2.63;;;9.90;99.90;;;;;;4963999;28;20041;-76
2024/03/08 12:32:12;;;;;;;4.50;2.35;;;9.80;99.90;;;;;;4966367;28;20041;-78
2024/03/08 12:34:38;;;;;;;4.72;2.50;;;10.00;99.90;;;;;;4963347;28;20039;-77
2024/03/08 12:37:06;;;;;;;7.22;4.03;;;10.00;99.90;;;;;;4965066;28;20101;-77
2024/03/08 12:39:33;;;;;;;5.15;2.80;;;10.00;99.90;;;;;;4964314;28;20032;-77
2024/03/08 12:41:59;;;;;;;4.40;2.22;;;9.80;99.90;;;;;;4964753;28;20034;-78
2024/03/08 12:44:26;;;;;;;4.78;2.42;;;9.70;99.90;;;;;;4965007;28;20046;-77
2024/03/08 12:46:53;;;;;;;5.13;2.72;;;9.60;99.90;;;;;;4966089;28;20034;-77
2024/03/08 12:49:21;;;;;;;4.15;2.00;;;9.70;99.90;;;;;;4966717;28;20130;-76
2024/03/08 12:51:48;;;;;;;4.90;2.33;;;9.80;99.90;;;;;;4968739;28;20030;-77
2024/03/08 12:54:13;;;;;;;3.58;1.77;;;9.80;99.90;;;;;;4969800;28;20042;-77
2024/03/08 12:56:39;;;;;;;4.20;2.10;;;9.80;99.90;;;;;;4967876;28;20182;-77
2024/03/08 12:59:10;;;;;;;3.90;2.08;;;10.00;99.90;;;;;;4966325;28;20112;-77